<?xml version="1.0" encoding="UTF-8" standalone="no" ?>
<gpx xmlns="http://www.topografix.com/GPX/1/1" xmlns:xsi="http://www.w3.org/2001/XMLSchema-instance" xsi:schemaLocation="http://www.topografix.com/GPX/1/1 http://www.topografix.com/GPX/1/1/gpx.xsd" version="1.1" creator="VisuGPX - https://www.visugpx.com">
  <metadata>
    <name>Tracé du Chemin de St Jacques, voie des Piémonts. De Juzet-d'Izaut à St Bertrand-de-Comminges</name>
    <desc><![CDATA[Tracé GPS (GPX), par le parcours du guide LEPERE EDITIONS, le guide officiel du chemin de St Jacques par la voie des Piémonts. ]]></desc>
  </metadata>
  <trk>
    <name><![CDATA[Chemin du Piémont-3265623]]></name>
    <trkseg>
      <trkpt lat="42.97693" lon="0.75937">
        <ele>598</ele>
        <time>2025-10-24T06:46:24Z</time>
      </trkpt>
      <trkpt lat="42.97712" lon="0.75864">
        <ele>595</ele>
        <time>2025-10-24T06:47:40Z</time>
      </trkpt>
      <trkpt lat="42.97733" lon="0.75795">
        <ele>591</ele>
        <time>2025-10-24T06:48:53Z</time>
      </trkpt>
      <trkpt lat="42.97733" lon="0.75735">
        <ele>589</ele>
        <time>2025-10-24T06:49:51Z</time>
      </trkpt>
      <trkpt lat="42.97721" lon="0.75666">
        <ele>588</ele>
        <time>2025-10-24T06:51:00Z</time>
      </trkpt>
      <trkpt lat="42.97724" lon="0.75598">
        <ele>588</ele>
        <time>2025-10-24T06:52:07Z</time>
      </trkpt>
      <trkpt lat="42.97762" lon="0.75478">
        <ele>584</ele>
        <time>2025-10-24T06:54:15Z</time>
      </trkpt>
      <trkpt lat="42.97768" lon="0.75418">
        <ele>586</ele>
        <time>2025-10-24T06:55:14Z</time>
      </trkpt>
      <trkpt lat="42.97796" lon="0.75285">
        <ele>577</ele>
        <time>2025-10-24T06:57:29Z</time>
      </trkpt>
      <trkpt lat="42.97865" lon="0.7519">
        <ele>578</ele>
        <time>2025-10-24T06:59:40Z</time>
      </trkpt>
      <trkpt lat="42.97916" lon="0.7513">
        <ele>580</ele>
        <time>2025-10-24T07:01:09Z</time>
      </trkpt>
      <trkpt lat="42.979" lon="0.75066">
        <ele>581</ele>
        <time>2025-10-24T07:02:15Z</time>
      </trkpt>
      <trkpt lat="42.97916" lon="0.74924">
        <ele>573</ele>
        <time>2025-10-24T07:04:36Z</time>
      </trkpt>
      <trkpt lat="42.97916" lon="0.74864">
        <ele>574</ele>
        <time>2025-10-24T07:05:34Z</time>
      </trkpt>
      <trkpt lat="42.97944" lon="0.748">
        <ele>580</ele>
        <time>2025-10-24T07:06:47Z</time>
      </trkpt>
      <trkpt lat="42.97985" lon="0.74731">
        <ele>586</ele>
        <time>2025-10-24T07:08:14Z</time>
      </trkpt>
      <trkpt lat="42.98013" lon="0.74658">
        <ele>586</ele>
        <time>2025-10-24T07:09:34Z</time>
      </trkpt>
      <trkpt lat="42.98019" lon="0.74589">
        <ele>587</ele>
        <time>2025-10-24T07:10:42Z</time>
      </trkpt>
      <trkpt lat="42.98076" lon="0.74529">
        <ele>583</ele>
        <time>2025-10-24T07:12:18Z</time>
      </trkpt>
      <trkpt lat="42.9817" lon="0.74516">
        <ele>575</ele>
        <time>2025-10-24T07:14:24Z</time>
      </trkpt>
      <trkpt lat="42.98258" lon="0.74534">
        <ele>566</ele>
        <time>2025-10-24T07:16:23Z</time>
      </trkpt>
      <trkpt lat="42.98346" lon="0.74482">
        <ele>559</ele>
        <time>2025-10-24T07:18:31Z</time>
      </trkpt>
      <trkpt lat="42.98427" lon="0.74353">
        <ele>549</ele>
        <time>2025-10-24T07:21:17Z</time>
      </trkpt>
      <trkpt lat="42.98468" lon="0.74293">
        <ele>546</ele>
        <time>2025-10-24T07:22:37Z</time>
      </trkpt>
      <trkpt lat="42.98496" lon="0.74237">
        <ele>547</ele>
        <time>2025-10-24T07:23:43Z</time>
      </trkpt>
      <trkpt lat="42.98509" lon="0.74173">
        <ele>545</ele>
        <time>2025-10-24T07:24:48Z</time>
      </trkpt>
      <trkpt lat="42.9855" lon="0.74109">
        <ele>539</ele>
        <time>2025-10-24T07:26:11Z</time>
      </trkpt>
      <trkpt lat="42.98542" lon="0.7406">
        <ele>532</ele>
        <time>2025-10-24T07:27:00Z</time>
      </trkpt>
      <trkpt lat="42.98584" lon="0.74048">
        <ele>533</ele>
        <time>2025-10-24T07:27:57Z</time>
      </trkpt>
      <trkpt lat="42.98594" lon="0.74086">
        <ele>539</ele>
        <time>2025-10-24T07:28:37Z</time>
      </trkpt>
      <trkpt lat="42.98614" lon="0.74125">
        <ele>535</ele>
        <time>2025-10-24T07:29:23Z</time>
      </trkpt>
      <trkpt lat="42.98657" lon="0.74146">
        <ele>526</ele>
        <time>2025-10-24T07:30:24Z</time>
      </trkpt>
      <trkpt lat="42.98655" lon="0.7409">
        <ele>530</ele>
        <time>2025-10-24T07:31:19Z</time>
      </trkpt>
      <trkpt lat="42.98704" lon="0.74093">
        <ele>519</ele>
        <time>2025-10-24T07:32:24Z</time>
      </trkpt>
      <trkpt lat="42.98729" lon="0.74142">
        <ele>511</ele>
        <time>2025-10-24T07:33:23Z</time>
      </trkpt>
      <trkpt lat="42.98748" lon="0.74101">
        <ele>508</ele>
        <time>2025-10-24T07:34:10Z</time>
      </trkpt>
      <trkpt lat="42.98751" lon="0.74058">
        <ele>504</ele>
        <time>2025-10-24T07:34:52Z</time>
      </trkpt>
      <trkpt lat="42.98743" lon="0.74028">
        <ele>502</ele>
        <time>2025-10-24T07:35:23Z</time>
      </trkpt>
      <trkpt lat="42.98711" lon="0.7399">
        <ele>503</ele>
        <time>2025-10-24T07:36:20Z</time>
      </trkpt>
      <trkpt lat="42.98694" lon="0.73953">
        <ele>499</ele>
        <time>2025-10-24T07:37:03Z</time>
      </trkpt>
      <trkpt lat="42.98688" lon="0.73912">
        <ele>491</ele>
        <time>2025-10-24T07:37:43Z</time>
      </trkpt>
      <trkpt lat="42.98664" lon="0.73835">
        <ele>491</ele>
        <time>2025-10-24T07:39:05Z</time>
      </trkpt>
      <trkpt lat="42.9866" lon="0.73796">
        <ele>493</ele>
        <time>2025-10-24T07:39:44Z</time>
      </trkpt>
      <trkpt lat="42.98644" lon="0.73764">
        <ele>494</ele>
        <time>2025-10-24T07:40:21Z</time>
      </trkpt>
      <trkpt lat="42.98589" lon="0.73721">
        <ele>498</ele>
        <time>2025-10-24T07:41:46Z</time>
      </trkpt>
      <trkpt lat="42.98595" lon="0.7367">
        <ele>500</ele>
        <time>2025-10-24T07:42:36Z</time>
      </trkpt>
      <trkpt lat="42.98595" lon="0.73612">
        <ele>512</ele>
        <time>2025-10-24T07:43:33Z</time>
      </trkpt>
      <trkpt lat="42.98584" lon="0.73552">
        <ele>522</ele>
        <time>2025-10-24T07:44:33Z</time>
      </trkpt>
      <trkpt lat="42.98581" lon="0.73492">
        <ele>533</ele>
        <time>2025-10-24T07:45:32Z</time>
      </trkpt>
      <trkpt lat="42.98587" lon="0.73419">
        <ele>547</ele>
        <time>2025-10-24T07:46:44Z</time>
      </trkpt>
      <trkpt lat="42.98587" lon="0.7338">
        <ele>550</ele>
        <time>2025-10-24T07:47:22Z</time>
      </trkpt>
      <trkpt lat="42.98583" lon="0.73342">
        <ele>552</ele>
        <time>2025-10-24T07:47:59Z</time>
      </trkpt>
      <trkpt lat="42.98598" lon="0.73303">
        <ele>558</ele>
        <time>2025-10-24T07:48:42Z</time>
      </trkpt>
      <trkpt lat="42.98598" lon="0.73262">
        <ele>558</ele>
        <time>2025-10-24T07:49:22Z</time>
      </trkpt>
      <trkpt lat="42.98606" lon="0.73224">
        <ele>560</ele>
        <time>2025-10-24T07:50:01Z</time>
      </trkpt>
      <trkpt lat="42.98609" lon="0.73187">
        <ele>559</ele>
        <time>2025-10-24T07:50:37Z</time>
      </trkpt>
      <trkpt lat="42.98616" lon="0.73148">
        <ele>560</ele>
        <time>2025-10-24T07:51:17Z</time>
      </trkpt>
      <trkpt lat="42.98619" lon="0.73112">
        <ele>562</ele>
        <time>2025-10-24T07:51:52Z</time>
      </trkpt>
      <trkpt lat="42.98608" lon="0.73082">
        <ele>559</ele>
        <time>2025-10-24T07:52:25Z</time>
      </trkpt>
      <trkpt lat="42.98625" lon="0.73041">
        <ele>567</ele>
        <time>2025-10-24T07:53:11Z</time>
      </trkpt>
      <trkpt lat="42.98646" lon="0.72966">
        <ele>580</ele>
        <time>2025-10-24T07:54:29Z</time>
      </trkpt>
      <trkpt lat="42.98658" lon="0.72932">
        <ele>588</ele>
        <time>2025-10-24T07:55:06Z</time>
      </trkpt>
      <trkpt lat="42.98653" lon="0.72854">
        <ele>598</ele>
        <time>2025-10-24T07:56:22Z</time>
      </trkpt>
      <trkpt lat="42.98678" lon="0.72889">
        <ele>597</ele>
        <time>2025-10-24T07:57:10Z</time>
      </trkpt>
      <trkpt lat="42.98683" lon="0.72945">
        <ele>592</ele>
        <time>2025-10-24T07:58:05Z</time>
      </trkpt>
      <trkpt lat="42.98724" lon="0.72983">
        <ele>598</ele>
        <time>2025-10-24T07:59:11Z</time>
      </trkpt>
      <trkpt lat="42.98729" lon="0.72934">
        <ele>603</ele>
        <time>2025-10-24T08:00:00Z</time>
      </trkpt>
      <trkpt lat="42.98727" lon="0.7288">
        <ele>607</ele>
        <time>2025-10-24T08:00:52Z</time>
      </trkpt>
      <trkpt lat="42.98738" lon="0.72799">
        <ele>613</ele>
        <time>2025-10-24T08:02:13Z</time>
      </trkpt>
      <trkpt lat="42.98749" lon="0.72754">
        <ele>616</ele>
        <time>2025-10-24T08:02:59Z</time>
      </trkpt>
      <trkpt lat="42.98732" lon="0.72736">
        <ele>616</ele>
        <time>2025-10-24T08:03:28Z</time>
      </trkpt>
      <trkpt lat="42.98707" lon="0.72717">
        <ele>618</ele>
        <time>2025-10-24T08:04:06Z</time>
      </trkpt>
      <trkpt lat="42.98674" lon="0.72711">
        <ele>620</ele>
        <time>2025-10-24T08:04:50Z</time>
      </trkpt>
      <trkpt lat="42.98653" lon="0.72689">
        <ele>621</ele>
        <time>2025-10-24T08:05:26Z</time>
      </trkpt>
      <trkpt lat="42.98647" lon="0.72655">
        <ele>624</ele>
        <time>2025-10-24T08:06:00Z</time>
      </trkpt>
      <trkpt lat="42.98647" lon="0.72616">
        <ele>628</ele>
        <time>2025-10-24T08:06:38Z</time>
      </trkpt>
      <trkpt lat="42.98653" lon="0.72578">
        <ele>633</ele>
        <time>2025-10-24T08:07:16Z</time>
      </trkpt>
      <trkpt lat="42.98655" lon="0.72535">
        <ele>638</ele>
        <time>2025-10-24T08:07:58Z</time>
      </trkpt>
      <trkpt lat="42.98675" lon="0.72488">
        <ele>646</ele>
        <time>2025-10-24T08:08:51Z</time>
      </trkpt>
      <trkpt lat="42.98689" lon="0.7244">
        <ele>648</ele>
        <time>2025-10-24T08:09:41Z</time>
      </trkpt>
      <trkpt lat="42.98699" lon="0.72393">
        <ele>653</ele>
        <time>2025-10-24T08:10:29Z</time>
      </trkpt>
      <trkpt lat="42.98715" lon="0.72352">
        <ele>657</ele>
        <time>2025-10-24T08:11:15Z</time>
      </trkpt>
      <trkpt lat="42.98762" lon="0.72271">
        <ele>668</ele>
        <time>2025-10-24T08:12:56Z</time>
      </trkpt>
      <trkpt lat="42.9879" lon="0.72181">
        <ele>671</ele>
        <time>2025-10-24T08:14:31Z</time>
      </trkpt>
      <trkpt lat="42.98837" lon="0.71955">
        <ele>682</ele>
        <time>2025-10-24T08:18:20Z</time>
      </trkpt>
      <trkpt lat="42.98872" lon="0.71919">
        <ele>683</ele>
        <time>2025-10-24T08:19:19Z</time>
      </trkpt>
      <trkpt lat="42.98905" lon="0.7188">
        <ele>686</ele>
        <time>2025-10-24T08:20:17Z</time>
      </trkpt>
      <trkpt lat="42.98926" lon="0.71786">
        <ele>697</ele>
        <time>2025-10-24T08:21:53Z</time>
      </trkpt>
      <trkpt lat="42.9895" lon="0.71644">
        <ele>699</ele>
        <time>2025-10-24T08:24:15Z</time>
      </trkpt>
      <trkpt lat="42.98972" lon="0.7155">
        <ele>695</ele>
        <time>2025-10-24T08:25:52Z</time>
      </trkpt>
      <trkpt lat="42.98975" lon="0.71507">
        <ele>695</ele>
        <time>2025-10-24T08:26:34Z</time>
      </trkpt>
      <trkpt lat="42.98963" lon="0.71393">
        <ele>696</ele>
        <time>2025-10-24T08:28:26Z</time>
      </trkpt>
      <trkpt lat="42.98937" lon="0.71314">
        <ele>706</ele>
        <time>2025-10-24T08:29:51Z</time>
      </trkpt>
      <trkpt lat="42.98944" lon="0.71241">
        <ele>709</ele>
        <time>2025-10-24T08:31:03Z</time>
      </trkpt>
      <trkpt lat="42.9895" lon="0.71207">
        <ele>711</ele>
        <time>2025-10-24T08:31:37Z</time>
      </trkpt>
      <trkpt lat="42.98972" lon="0.71168">
        <ele>706</ele>
        <time>2025-10-24T08:32:25Z</time>
      </trkpt>
      <trkpt lat="42.98985" lon="0.71131">
        <ele>705</ele>
        <time>2025-10-24T08:33:05Z</time>
      </trkpt>
      <trkpt lat="42.99003" lon="0.71016">
        <ele>703</ele>
        <time>2025-10-24T08:35:00Z</time>
      </trkpt>
      <trkpt lat="42.99" lon="0.70983">
        <ele>705</ele>
        <time>2025-10-24T08:35:32Z</time>
      </trkpt>
      <trkpt lat="42.99003" lon="0.70949">
        <ele>707</ele>
        <time>2025-10-24T08:36:06Z</time>
      </trkpt>
      <trkpt lat="42.99025" lon="0.70889">
        <ele>710</ele>
        <time>2025-10-24T08:37:11Z</time>
      </trkpt>
      <trkpt lat="42.99057" lon="0.70773">
        <ele>726</ele>
        <time>2025-10-24T08:39:12Z</time>
      </trkpt>
      <trkpt lat="42.99063" lon="0.70734">
        <ele>730</ele>
        <time>2025-10-24T08:39:51Z</time>
      </trkpt>
      <trkpt lat="42.99082" lon="0.70659">
        <ele>730</ele>
        <time>2025-10-24T08:41:08Z</time>
      </trkpt>
      <trkpt lat="42.99087" lon="0.70621">
        <ele>732</ele>
        <time>2025-10-24T08:41:46Z</time>
      </trkpt>
      <trkpt lat="42.99105" lon="0.70552">
        <ele>736</ele>
        <time>2025-10-24T08:42:58Z</time>
      </trkpt>
      <trkpt lat="42.99091" lon="0.70528">
        <ele>744</ele>
        <time>2025-10-24T08:43:28Z</time>
      </trkpt>
      <trkpt lat="42.99112" lon="0.70488">
        <ele>744</ele>
        <time>2025-10-24T08:44:16Z</time>
      </trkpt>
      <trkpt lat="42.99127" lon="0.70447">
        <ele>746</ele>
        <time>2025-10-24T08:45:00Z</time>
      </trkpt>
      <trkpt lat="42.99134" lon="0.70365">
        <ele>755</ele>
        <time>2025-10-24T08:46:21Z</time>
      </trkpt>
      <trkpt lat="42.99178" lon="0.70363">
        <ele>746</ele>
        <time>2025-10-24T08:47:20Z</time>
      </trkpt>
      <trkpt lat="42.99203" lon="0.70329">
        <ele>750</ele>
        <time>2025-10-24T08:48:07Z</time>
      </trkpt>
      <trkpt lat="42.99198" lon="0.70286">
        <ele>756</ele>
        <time>2025-10-24T08:48:49Z</time>
      </trkpt>
      <trkpt lat="42.9917" lon="0.7028">
        <ele>757</ele>
        <time>2025-10-24T08:49:27Z</time>
      </trkpt>
      <trkpt lat="42.99165" lon="0.70239">
        <ele>764</ele>
        <time>2025-10-24T08:50:08Z</time>
      </trkpt>
      <trkpt lat="42.9916" lon="0.70091">
        <ele>779</ele>
        <time>2025-10-24T08:52:32Z</time>
      </trkpt>
      <trkpt lat="42.99149" lon="0.7005">
        <ele>786</ele>
        <time>2025-10-24T08:53:15Z</time>
      </trkpt>
      <trkpt lat="42.99148" lon="0.699">
        <ele>796</ele>
        <time>2025-10-24T08:55:41Z</time>
      </trkpt>
      <trkpt lat="42.99135" lon="0.69795">
        <ele>805</ele>
        <time>2025-10-24T08:57:25Z</time>
      </trkpt>
      <trkpt lat="42.99131" lon="0.69743">
        <ele>808</ele>
        <time>2025-10-24T08:58:16Z</time>
      </trkpt>
      <trkpt lat="42.99137" lon="0.69651">
        <ele>809</ele>
        <time>2025-10-24T08:59:47Z</time>
      </trkpt>
      <trkpt lat="42.99124" lon="0.69614">
        <ele>810</ele>
        <time>2025-10-24T09:00:27Z</time>
      </trkpt>
      <trkpt lat="42.99109" lon="0.69468">
        <ele>808</ele>
        <time>2025-10-24T09:02:50Z</time>
      </trkpt>
      <trkpt lat="42.99104" lon="0.69438">
        <ele>809</ele>
        <time>2025-10-24T09:03:21Z</time>
      </trkpt>
      <trkpt lat="42.9908" lon="0.69355">
        <ele>810</ele>
        <time>2025-10-24T09:04:48Z</time>
      </trkpt>
      <trkpt lat="42.99054" lon="0.69348">
        <ele>808</ele>
        <time>2025-10-24T09:05:23Z</time>
      </trkpt>
      <trkpt lat="42.99027" lon="0.69333">
        <ele>805</ele>
        <time>2025-10-24T09:06:02Z</time>
      </trkpt>
      <trkpt lat="42.99039" lon="0.69317">
        <ele>804</ele>
        <time>2025-10-24T09:06:24Z</time>
      </trkpt>
      <trkpt lat="42.99043" lon="0.69297">
        <ele>802</ele>
        <time>2025-10-24T09:06:44Z</time>
      </trkpt>
      <trkpt lat="42.99045" lon="0.6928">
        <ele>800</ele>
        <time>2025-10-24T09:07:01Z</time>
      </trkpt>
      <trkpt lat="42.99039" lon="0.69264">
        <ele>797</ele>
        <time>2025-10-24T09:07:19Z</time>
      </trkpt>
      <trkpt lat="42.99025" lon="0.69254">
        <ele>792</ele>
        <time>2025-10-24T09:07:40Z</time>
      </trkpt>
      <trkpt lat="42.98982" lon="0.69245">
        <ele>785</ele>
        <time>2025-10-24T09:08:38Z</time>
      </trkpt>
      <trkpt lat="42.98952" lon="0.69234">
        <ele>785</ele>
        <time>2025-10-24T09:09:19Z</time>
      </trkpt>
      <trkpt lat="42.98927" lon="0.69175">
        <ele>781</ele>
        <time>2025-10-24T09:10:26Z</time>
      </trkpt>
      <trkpt lat="42.98919" lon="0.69146">
        <ele>779</ele>
        <time>2025-10-24T09:10:56Z</time>
      </trkpt>
      <trkpt lat="42.98915" lon="0.69089">
        <ele>775</ele>
        <time>2025-10-24T09:11:52Z</time>
      </trkpt>
      <trkpt lat="42.98906" lon="0.69026">
        <ele>773</ele>
        <time>2025-10-24T09:12:55Z</time>
      </trkpt>
      <trkpt lat="42.98887" lon="0.68968">
        <ele>771</ele>
        <time>2025-10-24T09:13:57Z</time>
      </trkpt>
      <trkpt lat="42.98867" lon="0.68932">
        <ele>767</ele>
        <time>2025-10-24T09:14:41Z</time>
      </trkpt>
      <trkpt lat="42.98842" lon="0.68902">
        <ele>761</ele>
        <time>2025-10-24T09:15:25Z</time>
      </trkpt>
      <trkpt lat="42.98829" lon="0.68859">
        <ele>755</ele>
        <time>2025-10-24T09:16:11Z</time>
      </trkpt>
      <trkpt lat="42.98804" lon="0.68827">
        <ele>755</ele>
        <time>2025-10-24T09:16:56Z</time>
      </trkpt>
      <trkpt lat="42.98793" lon="0.68788">
        <ele>755</ele>
        <time>2025-10-24T09:17:37Z</time>
      </trkpt>
      <trkpt lat="42.98787" lon="0.68739">
        <ele>753</ele>
        <time>2025-10-24T09:18:26Z</time>
      </trkpt>
      <trkpt lat="42.98771" lon="0.68685">
        <ele>747</ele>
        <time>2025-10-24T09:19:23Z</time>
      </trkpt>
      <trkpt lat="42.9874" lon="0.6852">
        <ele>723</ele>
        <time>2025-10-24T09:22:09Z</time>
      </trkpt>
      <trkpt lat="42.98722" lon="0.68464">
        <ele>719</ele>
        <time>2025-10-24T09:23:09Z</time>
      </trkpt>
      <trkpt lat="42.987" lon="0.68346">
        <ele>706</ele>
        <time>2025-10-24T09:25:08Z</time>
      </trkpt>
      <trkpt lat="42.98657" lon="0.68175">
        <ele>688</ele>
        <time>2025-10-24T09:28:04Z</time>
      </trkpt>
      <trkpt lat="42.98639" lon="0.68134">
        <ele>684</ele>
        <time>2025-10-24T09:28:51Z</time>
      </trkpt>
      <trkpt lat="42.98613" lon="0.68099">
        <ele>682</ele>
        <time>2025-10-24T09:29:39Z</time>
      </trkpt>
      <trkpt lat="42.98556" lon="0.68042">
        <ele>684</ele>
        <time>2025-10-24T09:31:14Z</time>
      </trkpt>
      <trkpt lat="42.98534" lon="0.68011">
        <ele>682</ele>
        <time>2025-10-24T09:31:56Z</time>
      </trkpt>
      <trkpt lat="42.98518" lon="0.67973">
        <ele>677</ele>
        <time>2025-10-24T09:32:39Z</time>
      </trkpt>
      <trkpt lat="42.98496" lon="0.67939">
        <ele>672</ele>
        <time>2025-10-24T09:33:23Z</time>
      </trkpt>
      <trkpt lat="42.98361" lon="0.67754">
        <ele>657</ele>
        <time>2025-10-24T09:37:38Z</time>
      </trkpt>
      <trkpt lat="42.98377" lon="0.67707">
        <ele>648</ele>
        <time>2025-10-24T09:38:29Z</time>
      </trkpt>
      <trkpt lat="42.98421" lon="0.67612">
        <ele>630</ele>
        <time>2025-10-24T09:40:18Z</time>
      </trkpt>
      <trkpt lat="42.98452" lon="0.67247">
        <ele>599</ele>
        <time>2025-10-24T09:46:17Z</time>
      </trkpt>
      <trkpt lat="42.98471" lon="0.67186">
        <ele>601</ele>
        <time>2025-10-24T09:47:22Z</time>
      </trkpt>
      <trkpt lat="42.98559" lon="0.67229">
        <ele>602</ele>
        <time>2025-10-24T09:49:27Z</time>
      </trkpt>
      <trkpt lat="42.98644" lon="0.67251">
        <ele>602</ele>
        <time>2025-10-24T09:51:22Z</time>
      </trkpt>
      <trkpt lat="42.98748" lon="0.67221">
        <ele>609</ele>
        <time>2025-10-24T09:53:44Z</time>
      </trkpt>
      <trkpt lat="42.98854" lon="0.67199">
        <ele>615</ele>
        <time>2025-10-24T09:56:07Z</time>
      </trkpt>
      <trkpt lat="42.98936" lon="0.67199">
        <ele>625</ele>
        <time>2025-10-24T09:57:56Z</time>
      </trkpt>
      <trkpt lat="42.98983" lon="0.67272">
        <ele>618</ele>
        <time>2025-10-24T09:59:31Z</time>
      </trkpt>
      <trkpt lat="42.99014" lon="0.67371">
        <ele>609</ele>
        <time>2025-10-24T10:01:16Z</time>
      </trkpt>
      <trkpt lat="42.99041" lon="0.67406">
        <ele>609</ele>
        <time>2025-10-24T10:02:06Z</time>
      </trkpt>
      <trkpt lat="42.99093" lon="0.67419">
        <ele>612</ele>
        <time>2025-10-24T10:03:17Z</time>
      </trkpt>
      <trkpt lat="42.99145" lon="0.67436">
        <ele>617</ele>
        <time>2025-10-24T10:04:28Z</time>
      </trkpt>
      <trkpt lat="42.99189" lon="0.67413">
        <ele>615</ele>
        <time>2025-10-24T10:05:31Z</time>
      </trkpt>
      <trkpt lat="42.99233" lon="0.674">
        <ele>608</ele>
        <time>2025-10-24T10:06:31Z</time>
      </trkpt>
      <trkpt lat="42.99407" lon="0.67376">
        <ele>566</ele>
        <time>2025-10-24T10:10:24Z</time>
      </trkpt>
      <trkpt lat="42.99484" lon="0.67374">
        <ele>551</ele>
        <time>2025-10-24T10:12:07Z</time>
      </trkpt>
      <trkpt lat="42.99537" lon="0.67385">
        <ele>545</ele>
        <time>2025-10-24T10:13:19Z</time>
      </trkpt>
      <trkpt lat="42.99578" lon="0.67421">
        <ele>543</ele>
        <time>2025-10-24T10:14:24Z</time>
      </trkpt>
      <trkpt lat="42.99614" lon="0.67464">
        <ele>544</ele>
        <time>2025-10-24T10:15:27Z</time>
      </trkpt>
      <trkpt lat="42.99648" lon="0.67417">
        <ele>538</ele>
        <time>2025-10-24T10:16:32Z</time>
      </trkpt>
      <trkpt lat="42.99716" lon="0.67338">
        <ele>535</ele>
        <time>2025-10-24T10:18:31Z</time>
      </trkpt>
      <trkpt lat="42.99754" lon="0.67306">
        <ele>534</ele>
        <time>2025-10-24T10:19:30Z</time>
      </trkpt>
      <trkpt lat="42.99802" lon="0.67299">
        <ele>534</ele>
        <time>2025-10-24T10:20:35Z</time>
      </trkpt>
      <trkpt lat="42.99854" lon="0.6728">
        <ele>535</ele>
        <time>2025-10-24T10:21:47Z</time>
      </trkpt>
      <trkpt lat="42.99904" lon="0.67258">
        <ele>538</ele>
        <time>2025-10-24T10:22:57Z</time>
      </trkpt>
      <trkpt lat="42.99953" lon="0.67275">
        <ele>539</ele>
        <time>2025-10-24T10:24:04Z</time>
      </trkpt>
      <trkpt lat="42.99995" lon="0.67297">
        <ele>540</ele>
        <time>2025-10-24T10:25:04Z</time>
      </trkpt>
      <trkpt lat="42.99987" lon="0.67265">
        <ele>541</ele>
        <time>2025-10-24T10:25:37Z</time>
      </trkpt>
      <trkpt lat="43.00016" lon="0.67192">
        <ele>552</ele>
        <time>2025-10-24T10:26:58Z</time>
      </trkpt>
      <trkpt lat="42.9997" lon="0.67179">
        <ele>549</ele>
        <time>2025-10-24T10:28:01Z</time>
      </trkpt>
      <trkpt lat="42.99947" lon="0.67138">
        <ele>552</ele>
        <time>2025-10-24T10:28:52Z</time>
      </trkpt>
      <trkpt lat="42.99937" lon="0.671">
        <ele>555</ele>
        <time>2025-10-24T10:29:31Z</time>
      </trkpt>
      <trkpt lat="42.9992" lon="0.67065">
        <ele>557</ele>
        <time>2025-10-24T10:30:12Z</time>
      </trkpt>
      <trkpt lat="42.9989" lon="0.67005">
        <ele>564</ele>
        <time>2025-10-24T10:31:23Z</time>
      </trkpt>
      <trkpt lat="42.99871" lon="0.66977">
        <ele>566</ele>
        <time>2025-10-24T10:32:00Z</time>
      </trkpt>
      <trkpt lat="42.99846" lon="0.66928">
        <ele>571</ele>
        <time>2025-10-24T10:32:58Z</time>
      </trkpt>
      <trkpt lat="42.99846" lon="0.66904">
        <ele>575</ele>
        <time>2025-10-24T10:33:22Z</time>
      </trkpt>
      <trkpt lat="42.99818" lon="0.66857">
        <ele>578</ele>
        <time>2025-10-24T10:34:21Z</time>
      </trkpt>
      <trkpt lat="42.9981" lon="0.66829">
        <ele>582</ele>
        <time>2025-10-24T10:34:50Z</time>
      </trkpt>
      <trkpt lat="42.99804" lon="0.6676">
        <ele>596</ele>
        <time>2025-10-24T10:35:58Z</time>
      </trkpt>
      <trkpt lat="42.99791" lon="0.66735">
        <ele>599</ele>
        <time>2025-10-24T10:36:28Z</time>
      </trkpt>
      <trkpt lat="42.99787" lon="0.66703">
        <ele>607</ele>
        <time>2025-10-24T10:37:00Z</time>
      </trkpt>
      <trkpt lat="42.99772" lon="0.66638">
        <ele>621</ele>
        <time>2025-10-24T10:38:06Z</time>
      </trkpt>
      <trkpt lat="42.99747" lon="0.66578">
        <ele>631</ele>
        <time>2025-10-24T10:39:14Z</time>
      </trkpt>
      <trkpt lat="42.99732" lon="0.66524">
        <ele>647</ele>
        <time>2025-10-24T10:40:10Z</time>
      </trkpt>
      <trkpt lat="42.9971" lon="0.6652">
        <ele>650</ele>
        <time>2025-10-24T10:40:40Z</time>
      </trkpt>
      <trkpt lat="42.99719" lon="0.66454">
        <ele>669</ele>
        <time>2025-10-24T10:41:45Z</time>
      </trkpt>
      <trkpt lat="42.99708" lon="0.66436">
        <ele>676</ele>
        <time>2025-10-24T10:42:08Z</time>
      </trkpt>
      <trkpt lat="42.99721" lon="0.66398">
        <ele>684</ele>
        <time>2025-10-24T10:42:49Z</time>
      </trkpt>
      <trkpt lat="42.99716" lon="0.66366">
        <ele>692</ele>
        <time>2025-10-24T10:43:21Z</time>
      </trkpt>
      <trkpt lat="42.99694" lon="0.66269">
        <ele>705</ele>
        <time>2025-10-24T10:45:00Z</time>
      </trkpt>
      <trkpt lat="42.99664" lon="0.66228">
        <ele>705</ele>
        <time>2025-10-24T10:45:57Z</time>
      </trkpt>
      <trkpt lat="42.99617" lon="0.66183">
        <ele>716</ele>
        <time>2025-10-24T10:47:13Z</time>
      </trkpt>
      <trkpt lat="42.99594" lon="0.66155">
        <ele>719</ele>
        <time>2025-10-24T10:47:54Z</time>
      </trkpt>
      <trkpt lat="42.99579" lon="0.66125">
        <ele>723</ele>
        <time>2025-10-24T10:48:30Z</time>
      </trkpt>
      <trkpt lat="42.99576" lon="0.661">
        <ele>725</ele>
        <time>2025-10-24T10:48:55Z</time>
      </trkpt>
      <trkpt lat="42.99592" lon="0.6607">
        <ele>727</ele>
        <time>2025-10-24T10:49:31Z</time>
      </trkpt>
      <trkpt lat="42.99581" lon="0.66033">
        <ele>733</ele>
        <time>2025-10-24T10:50:10Z</time>
      </trkpt>
      <trkpt lat="42.99581" lon="0.66001">
        <ele>738</ele>
        <time>2025-10-24T10:50:41Z</time>
      </trkpt>
      <trkpt lat="42.99578" lon="0.65975">
        <ele>746</ele>
        <time>2025-10-24T10:51:07Z</time>
      </trkpt>
      <trkpt lat="42.996" lon="0.65943">
        <ele>756</ele>
        <time>2025-10-24T10:51:50Z</time>
      </trkpt>
      <trkpt lat="42.99609" lon="0.65913">
        <ele>765</ele>
        <time>2025-10-24T10:52:21Z</time>
      </trkpt>
      <trkpt lat="42.99601" lon="0.65851">
        <ele>778</ele>
        <time>2025-10-24T10:53:23Z</time>
      </trkpt>
      <trkpt lat="42.99623" lon="0.65821">
        <ele>788</ele>
        <time>2025-10-24T10:54:04Z</time>
      </trkpt>
      <trkpt lat="42.99637" lon="0.65788">
        <ele>794</ele>
        <time>2025-10-24T10:54:41Z</time>
      </trkpt>
      <trkpt lat="42.99681" lon="0.65769">
        <ele>799</ele>
        <time>2025-10-24T10:55:43Z</time>
      </trkpt>
      <trkpt lat="42.99727" lon="0.65763">
        <ele>803</ele>
        <time>2025-10-24T10:56:45Z</time>
      </trkpt>
      <trkpt lat="42.99711" lon="0.65739">
        <ele>802</ele>
        <time>2025-10-24T10:57:16Z</time>
      </trkpt>
      <trkpt lat="42.99703" lon="0.6572">
        <ele>802</ele>
        <time>2025-10-24T10:57:38Z</time>
      </trkpt>
      <trkpt lat="42.99735" lon="0.6569">
        <ele>806</ele>
        <time>2025-10-24T10:58:30Z</time>
      </trkpt>
      <trkpt lat="42.99755" lon="0.65662">
        <ele>810</ele>
        <time>2025-10-24T10:59:08Z</time>
      </trkpt>
      <trkpt lat="42.99783" lon="0.65632">
        <ele>816</ele>
        <time>2025-10-24T10:59:55Z</time>
      </trkpt>
      <trkpt lat="42.99805" lon="0.65602">
        <ele>823</ele>
        <time>2025-10-24T11:00:37Z</time>
      </trkpt>
      <trkpt lat="42.99783" lon="0.65604">
        <ele>819</ele>
        <time>2025-10-24T11:01:06Z</time>
      </trkpt>
      <trkpt lat="42.99768" lon="0.6558">
        <ele>819</ele>
        <time>2025-10-24T11:01:37Z</time>
      </trkpt>
      <trkpt lat="42.99761" lon="0.65516">
        <ele>822</ele>
        <time>2025-10-24T11:02:40Z</time>
      </trkpt>
      <trkpt lat="42.99752" lon="0.65482">
        <ele>823</ele>
        <time>2025-10-24T11:03:15Z</time>
      </trkpt>
      <trkpt lat="42.99743" lon="0.6546">
        <ele>825</ele>
        <time>2025-10-24T11:03:40Z</time>
      </trkpt>
      <trkpt lat="42.99708" lon="0.65422">
        <ele>828</ele>
        <time>2025-10-24T11:04:40Z</time>
      </trkpt>
      <trkpt lat="42.99683" lon="0.65424">
        <ele>825</ele>
        <time>2025-10-24T11:05:13Z</time>
      </trkpt>
      <trkpt lat="42.99626" lon="0.65439">
        <ele>818</ele>
        <time>2025-10-24T11:06:30Z</time>
      </trkpt>
      <trkpt lat="42.99598" lon="0.65432">
        <ele>817</ele>
        <time>2025-10-24T11:07:08Z</time>
      </trkpt>
      <trkpt lat="42.99564" lon="0.65428">
        <ele>814</ele>
        <time>2025-10-24T11:07:54Z</time>
      </trkpt>
      <trkpt lat="42.99595" lon="0.65396">
        <ele>824</ele>
        <time>2025-10-24T11:08:46Z</time>
      </trkpt>
      <trkpt lat="42.99598" lon="0.65334">
        <ele>838</ele>
        <time>2025-10-24T11:09:46Z</time>
      </trkpt>
      <trkpt lat="42.99612" lon="0.65282">
        <ele>847</ele>
        <time>2025-10-24T11:10:41Z</time>
      </trkpt>
      <trkpt lat="42.99647" lon="0.65246">
        <ele>859</ele>
        <time>2025-10-24T11:11:39Z</time>
      </trkpt>
      <trkpt lat="42.99681" lon="0.65203">
        <ele>864</ele>
        <time>2025-10-24T11:12:41Z</time>
      </trkpt>
      <trkpt lat="42.99711" lon="0.6517">
        <ele>869</ele>
        <time>2025-10-24T11:13:32Z</time>
      </trkpt>
      <trkpt lat="42.99732" lon="0.65128">
        <ele>873</ele>
        <time>2025-10-24T11:14:22Z</time>
      </trkpt>
      <trkpt lat="42.99749" lon="0.65085">
        <ele>876</ele>
        <time>2025-10-24T11:15:10Z</time>
      </trkpt>
      <trkpt lat="42.99757" lon="0.65018">
        <ele>880</ele>
        <time>2025-10-24T11:16:16Z</time>
      </trkpt>
      <trkpt lat="42.99838" lon="0.64956">
        <ele>890</ele>
        <time>2025-10-24T11:18:20Z</time>
      </trkpt>
      <trkpt lat="42.99889" lon="0.64922">
        <ele>904</ele>
        <time>2025-10-24T11:19:35Z</time>
      </trkpt>
      <trkpt lat="42.9994" lon="0.64913">
        <ele>908</ele>
        <time>2025-10-24T11:20:44Z</time>
      </trkpt>
      <trkpt lat="42.99978" lon="0.64881">
        <ele>915</ele>
        <time>2025-10-24T11:21:44Z</time>
      </trkpt>
      <trkpt lat="42.99994" lon="0.6484">
        <ele>922</ele>
        <time>2025-10-24T11:22:29Z</time>
      </trkpt>
      <trkpt lat="43.00008" lon="0.64778">
        <ele>917</ele>
        <time>2025-10-24T11:23:32Z</time>
      </trkpt>
      <trkpt lat="43.00016" lon="0.64701">
        <ele>903</ele>
        <time>2025-10-24T11:24:48Z</time>
      </trkpt>
      <trkpt lat="43.00008" lon="0.6466">
        <ele>899</ele>
        <time>2025-10-24T11:25:30Z</time>
      </trkpt>
      <trkpt lat="42.99991" lon="0.6461">
        <ele>899</ele>
        <time>2025-10-24T11:26:23Z</time>
      </trkpt>
      <trkpt lat="42.99975" lon="0.64552">
        <ele>901</ele>
        <time>2025-10-24T11:27:24Z</time>
      </trkpt>
      <trkpt lat="42.9995" lon="0.64347">
        <ele>912</ele>
        <time>2025-10-24T11:30:47Z</time>
      </trkpt>
      <trkpt lat="42.99953" lon="0.64293">
        <ele>910</ele>
        <time>2025-10-24T11:31:40Z</time>
      </trkpt>
      <trkpt lat="43.00011" lon="0.64286">
        <ele>896</ele>
        <time>2025-10-24T11:32:57Z</time>
      </trkpt>
      <trkpt lat="43.0008" lon="0.64284">
        <ele>900</ele>
        <time>2025-10-24T11:34:29Z</time>
      </trkpt>
      <trkpt lat="43.00107" lon="0.64316">
        <ele>906</ele>
        <time>2025-10-24T11:35:17Z</time>
      </trkpt>
      <trkpt lat="43.00158" lon="0.64336">
        <ele>917</ele>
        <time>2025-10-24T11:36:28Z</time>
      </trkpt>
      <trkpt lat="43.00217" lon="0.64336">
        <ele>924</ele>
        <time>2025-10-24T11:37:47Z</time>
      </trkpt>
      <trkpt lat="43.00264" lon="0.64327">
        <ele>928</ele>
        <time>2025-10-24T11:38:50Z</time>
      </trkpt>
      <trkpt lat="43.00306" lon="0.6434">
        <ele>934</ele>
        <time>2025-10-24T11:39:47Z</time>
      </trkpt>
      <trkpt lat="43.00336" lon="0.64299">
        <ele>934</ele>
        <time>2025-10-24T11:40:44Z</time>
      </trkpt>
      <trkpt lat="43.00369" lon="0.64267">
        <ele>935</ele>
        <time>2025-10-24T11:41:38Z</time>
      </trkpt>
      <trkpt lat="43.00413" lon="0.64239">
        <ele>939</ele>
        <time>2025-10-24T11:42:43Z</time>
      </trkpt>
      <trkpt lat="43.00447" lon="0.64203">
        <ele>937</ele>
        <time>2025-10-24T11:43:40Z</time>
      </trkpt>
      <trkpt lat="43.00643" lon="0.64033">
        <ele>947</ele>
        <time>2025-10-24T11:48:50Z</time>
      </trkpt>
      <trkpt lat="43.00694" lon="0.64029">
        <ele>952</ele>
        <time>2025-10-24T11:49:58Z</time>
      </trkpt>
      <trkpt lat="43.00742" lon="0.64033">
        <ele>958</ele>
        <time>2025-10-24T11:51:02Z</time>
      </trkpt>
      <trkpt lat="43.00794" lon="0.64053">
        <ele>961</ele>
        <time>2025-10-24T11:52:14Z</time>
      </trkpt>
      <trkpt lat="43.00833" lon="0.64083">
        <ele>966</ele>
        <time>2025-10-24T11:53:14Z</time>
      </trkpt>
      <trkpt lat="43.00872" lon="0.64119">
        <ele>971</ele>
        <time>2025-10-24T11:54:17Z</time>
      </trkpt>
      <trkpt lat="43.00926" lon="0.64128">
        <ele>968</ele>
        <time>2025-10-24T11:55:29Z</time>
      </trkpt>
      <trkpt lat="43.00978" lon="0.64125">
        <ele>965</ele>
        <time>2025-10-24T11:56:39Z</time>
      </trkpt>
      <trkpt lat="43.01023" lon="0.64117">
        <ele>965</ele>
        <time>2025-10-24T11:57:39Z</time>
      </trkpt>
      <trkpt lat="43.01067" lon="0.64038">
        <ele>949</ele>
        <time>2025-10-24T11:59:16Z</time>
      </trkpt>
      <trkpt lat="43.01111" lon="0.63967">
        <ele>939</ele>
        <time>2025-10-24T12:00:47Z</time>
      </trkpt>
      <trkpt lat="43.01156" lon="0.63935">
        <ele>945</ele>
        <time>2025-10-24T12:01:55Z</time>
      </trkpt>
      <trkpt lat="43.01177" lon="0.639">
        <ele>942</ele>
        <time>2025-10-24T12:02:39Z</time>
      </trkpt>
      <trkpt lat="43.01193" lon="0.63859">
        <ele>936</ele>
        <time>2025-10-24T12:03:24Z</time>
      </trkpt>
      <trkpt lat="43.01216" lon="0.63718">
        <ele>930</ele>
        <time>2025-10-24T12:05:45Z</time>
      </trkpt>
      <trkpt lat="43.01249" lon="0.63688">
        <ele>937</ele>
        <time>2025-10-24T12:06:38Z</time>
      </trkpt>
      <trkpt lat="43.01293" lon="0.63713">
        <ele>932</ele>
        <time>2025-10-24T12:07:42Z</time>
      </trkpt>
      <trkpt lat="43.01337" lon="0.63744">
        <ele>928</ele>
        <time>2025-10-24T12:08:48Z</time>
      </trkpt>
      <trkpt lat="43.01378" lon="0.63748">
        <ele>919</ele>
        <time>2025-10-24T12:09:43Z</time>
      </trkpt>
      <trkpt lat="43.0139" lon="0.63709">
        <ele>914</ele>
        <time>2025-10-24T12:10:24Z</time>
      </trkpt>
      <trkpt lat="43.0139" lon="0.63662">
        <ele>911</ele>
        <time>2025-10-24T12:11:10Z</time>
      </trkpt>
      <trkpt lat="43.014" lon="0.63613">
        <ele>905</ele>
        <time>2025-10-24T12:11:59Z</time>
      </trkpt>
      <trkpt lat="43.01411" lon="0.63563">
        <ele>898</ele>
        <time>2025-10-24T12:12:50Z</time>
      </trkpt>
      <trkpt lat="43.01426" lon="0.6352">
        <ele>889</ele>
        <time>2025-10-24T12:13:37Z</time>
      </trkpt>
      <trkpt lat="43.01502" lon="0.63435">
        <ele>861</ele>
        <time>2025-10-24T12:15:48Z</time>
      </trkpt>
      <trkpt lat="43.01524" lon="0.63396">
        <ele>855</ele>
        <time>2025-10-24T12:16:36Z</time>
      </trkpt>
      <trkpt lat="43.01535" lon="0.63349">
        <ele>851</ele>
        <time>2025-10-24T12:17:24Z</time>
      </trkpt>
      <trkpt lat="43.01553" lon="0.63291">
        <ele>844</ele>
        <time>2025-10-24T12:18:26Z</time>
      </trkpt>
      <trkpt lat="43.01596" lon="0.63308">
        <ele>845</ele>
        <time>2025-10-24T12:19:25Z</time>
      </trkpt>
      <trkpt lat="43.01613" lon="0.63362">
        <ele>846</ele>
        <time>2025-10-24T12:20:23Z</time>
      </trkpt>
      <trkpt lat="43.01629" lon="0.63428">
        <ele>844</ele>
        <time>2025-10-24T12:21:31Z</time>
      </trkpt>
      <trkpt lat="43.01674" lon="0.63553">
        <ele>834</ele>
        <time>2025-10-24T12:23:46Z</time>
      </trkpt>
      <trkpt lat="43.01742" lon="0.63623">
        <ele>822</ele>
        <time>2025-10-24T12:25:40Z</time>
      </trkpt>
      <trkpt lat="43.01776" lon="0.63653">
        <ele>821</ele>
        <time>2025-10-24T12:26:34Z</time>
      </trkpt>
      <trkpt lat="43.01771" lon="0.63608">
        <ele>819</ele>
        <time>2025-10-24T12:27:18Z</time>
      </trkpt>
      <trkpt lat="43.01771" lon="0.63563">
        <ele>817</ele>
        <time>2025-10-24T12:28:02Z</time>
      </trkpt>
      <trkpt lat="43.01776" lon="0.63523">
        <ele>815</ele>
        <time>2025-10-24T12:28:42Z</time>
      </trkpt>
      <trkpt lat="43.01814" lon="0.63492">
        <ele>809</ele>
        <time>2025-10-24T12:29:41Z</time>
      </trkpt>
      <trkpt lat="43.01819" lon="0.63447">
        <ele>803</ele>
        <time>2025-10-24T12:30:25Z</time>
      </trkpt>
      <trkpt lat="43.0183" lon="0.63398">
        <ele>795</ele>
        <time>2025-10-24T12:31:15Z</time>
      </trkpt>
      <trkpt lat="43.01836" lon="0.63349">
        <ele>788</ele>
        <time>2025-10-24T12:32:04Z</time>
      </trkpt>
      <trkpt lat="43.01837" lon="0.63229">
        <ele>773</ele>
        <time>2025-10-24T12:34:01Z</time>
      </trkpt>
      <trkpt lat="43.01841" lon="0.63177">
        <ele>767</ele>
        <time>2025-10-24T12:34:52Z</time>
      </trkpt>
      <trkpt lat="43.01847" lon="0.6313">
        <ele>763</ele>
        <time>2025-10-24T12:35:39Z</time>
      </trkpt>
      <trkpt lat="43.01872" lon="0.63033">
        <ele>755</ele>
        <time>2025-10-24T12:37:19Z</time>
      </trkpt>
      <trkpt lat="43.01873" lon="0.6299">
        <ele>750</ele>
        <time>2025-10-24T12:38:01Z</time>
      </trkpt>
      <trkpt lat="43.01881" lon="0.62947">
        <ele>747</ele>
        <time>2025-10-24T12:38:44Z</time>
      </trkpt>
      <trkpt lat="43.01899" lon="0.62913">
        <ele>746</ele>
        <time>2025-10-24T12:39:25Z</time>
      </trkpt>
      <trkpt lat="43.01935" lon="0.62872">
        <ele>745</ele>
        <time>2025-10-24T12:40:28Z</time>
      </trkpt>
      <trkpt lat="43.01977" lon="0.62857">
        <ele>740</ele>
        <time>2025-10-24T12:41:26Z</time>
      </trkpt>
      <trkpt lat="43.02021" lon="0.62836">
        <ele>732</ele>
        <time>2025-10-24T12:42:28Z</time>
      </trkpt>
      <trkpt lat="43.02082" lon="0.62733">
        <ele>714</ele>
        <time>2025-10-24T12:44:37Z</time>
      </trkpt>
      <trkpt lat="43.02139" lon="0.62673">
        <ele>711</ele>
        <time>2025-10-24T12:46:13Z</time>
      </trkpt>
      <trkpt lat="43.02148" lon="0.62643">
        <ele>709</ele>
        <time>2025-10-24T12:46:45Z</time>
      </trkpt>
      <trkpt lat="43.02165" lon="0.62602">
        <ele>707</ele>
        <time>2025-10-24T12:47:31Z</time>
      </trkpt>
      <trkpt lat="43.02184" lon="0.6252">
        <ele>707</ele>
        <time>2025-10-24T12:48:55Z</time>
      </trkpt>
      <trkpt lat="43.022" lon="0.62473">
        <ele>710</ele>
        <time>2025-10-24T12:49:45Z</time>
      </trkpt>
      <trkpt lat="43.02212" lon="0.62426">
        <ele>710</ele>
        <time>2025-10-24T12:50:34Z</time>
      </trkpt>
      <trkpt lat="43.02211" lon="0.62392">
        <ele>706</ele>
        <time>2025-10-24T12:51:07Z</time>
      </trkpt>
      <trkpt lat="43.02217" lon="0.62349">
        <ele>701</ele>
        <time>2025-10-24T12:51:50Z</time>
      </trkpt>
      <trkpt lat="43.02228" lon="0.62308">
        <ele>698</ele>
        <time>2025-10-24T12:52:32Z</time>
      </trkpt>
      <trkpt lat="43.0228" lon="0.62291">
        <ele>696</ele>
        <time>2025-10-24T12:53:44Z</time>
      </trkpt>
      <trkpt lat="43.02322" lon="0.62289">
        <ele>691</ele>
        <time>2025-10-24T12:54:40Z</time>
      </trkpt>
      <trkpt lat="43.02361" lon="0.62327">
        <ele>695</ele>
        <time>2025-10-24T12:55:44Z</time>
      </trkpt>
      <trkpt lat="43.02452" lon="0.62353">
        <ele>674</ele>
        <time>2025-10-24T12:57:48Z</time>
      </trkpt>
      <trkpt lat="43.0249" lon="0.6239">
        <ele>676</ele>
        <time>2025-10-24T12:58:50Z</time>
      </trkpt>
      <trkpt lat="43.02532" lon="0.62417">
        <ele>672</ele>
        <time>2025-10-24T12:59:52Z</time>
      </trkpt>
      <trkpt lat="43.02622" lon="0.62458">
        <ele>651</ele>
        <time>2025-10-24T13:01:58Z</time>
      </trkpt>
      <trkpt lat="43.02727" lon="0.62572">
        <ele>639</ele>
        <time>2025-10-24T13:04:57Z</time>
      </trkpt>
      <trkpt lat="43.02763" lon="0.62626">
        <ele>632</ele>
        <time>2025-10-24T13:06:09Z</time>
      </trkpt>
      <trkpt lat="43.02799" lon="0.6269">
        <ele>628</ele>
        <time>2025-10-24T13:07:27Z</time>
      </trkpt>
      <trkpt lat="43.02844" lon="0.62746">
        <ele>616</ele>
        <time>2025-10-24T13:08:49Z</time>
      </trkpt>
      <trkpt lat="43.02917" lon="0.62883">
        <ele>608</ele>
        <time>2025-10-24T13:11:34Z</time>
      </trkpt>
      <trkpt lat="43.02946" lon="0.62932">
        <ele>606</ele>
        <time>2025-10-24T13:12:35Z</time>
      </trkpt>
      <trkpt lat="43.03026" lon="0.63031">
        <ele>594</ele>
        <time>2025-10-24T13:14:59Z</time>
      </trkpt>
      <trkpt lat="43.03069" lon="0.63068">
        <ele>589</ele>
        <time>2025-10-24T13:16:07Z</time>
      </trkpt>
      <trkpt lat="43.03188" lon="0.63059">
        <ele>568</ele>
        <time>2025-10-24T13:18:46Z</time>
      </trkpt>
      <trkpt lat="43.0323" lon="0.63035">
        <ele>566</ele>
        <time>2025-10-24T13:19:47Z</time>
      </trkpt>
      <trkpt lat="43.03244" lon="0.62997">
        <ele>562</ele>
        <time>2025-10-24T13:20:28Z</time>
      </trkpt>
      <trkpt lat="43.0326" lon="0.62917">
        <ele>554</ele>
        <time>2025-10-24T13:21:49Z</time>
      </trkpt>
      <trkpt lat="43.03298" lon="0.62849">
        <ele>549</ele>
        <time>2025-10-24T13:23:13Z</time>
      </trkpt>
      <trkpt lat="43.03313" lon="0.62797">
        <ele>542</ele>
        <time>2025-10-24T13:24:07Z</time>
      </trkpt>
      <trkpt lat="43.03321" lon="0.62761">
        <ele>536</ele>
        <time>2025-10-24T13:24:44Z</time>
      </trkpt>
      <trkpt lat="43.03324" lon="0.62718">
        <ele>528</ele>
        <time>2025-10-24T13:25:26Z</time>
      </trkpt>
      <trkpt lat="43.03329" lon="0.62686">
        <ele>524</ele>
        <time>2025-10-24T13:25:58Z</time>
      </trkpt>
      <trkpt lat="43.03361" lon="0.62626">
        <ele>513</ele>
        <time>2025-10-24T13:27:11Z</time>
      </trkpt>
      <trkpt lat="43.03372" lon="0.62548">
        <ele>501</ele>
        <time>2025-10-24T13:28:28Z</time>
      </trkpt>
      <trkpt lat="43.03346" lon="0.62529">
        <ele>499</ele>
        <time>2025-10-24T13:29:07Z</time>
      </trkpt>
      <trkpt lat="43.03324" lon="0.62508">
        <ele>496</ele>
        <time>2025-10-24T13:29:43Z</time>
      </trkpt>
      <trkpt lat="43.03296" lon="0.62435">
        <ele>493</ele>
        <time>2025-10-24T13:31:04Z</time>
      </trkpt>
      <trkpt lat="43.03282" lon="0.6239">
        <ele>491</ele>
        <time>2025-10-24T13:31:51Z</time>
      </trkpt>
      <trkpt lat="43.03282" lon="0.62278">
        <ele>484</ele>
        <time>2025-10-24T13:33:41Z</time>
      </trkpt>
      <trkpt lat="43.03273" lon="0.62233">
        <ele>480</ele>
        <time>2025-10-24T13:34:26Z</time>
      </trkpt>
      <trkpt lat="43.03254" lon="0.6219">
        <ele>478</ele>
        <time>2025-10-24T13:35:15Z</time>
      </trkpt>
      <trkpt lat="43.03216" lon="0.62177">
        <ele>474</ele>
        <time>2025-10-24T13:36:07Z</time>
      </trkpt>
      <trkpt lat="43.03163" lon="0.62173">
        <ele>468</ele>
        <time>2025-10-24T13:37:18Z</time>
      </trkpt>
      <trkpt lat="43.03152" lon="0.62111">
        <ele>468</ele>
        <time>2025-10-24T13:38:20Z</time>
      </trkpt>
      <trkpt lat="43.03132" lon="0.62044">
        <ele>467</ele>
        <time>2025-10-24T13:39:31Z</time>
      </trkpt>
      <trkpt lat="43.03103" lon="0.6192">
        <ele>466</ele>
        <time>2025-10-24T13:41:38Z</time>
      </trkpt>
      <trkpt lat="43.03091" lon="0.61862">
        <ele>465</ele>
        <time>2025-10-24T13:42:37Z</time>
      </trkpt>
      <trkpt lat="43.03081" lon="0.61778">
        <ele>459</ele>
        <time>2025-10-24T13:44:00Z</time>
      </trkpt>
      <trkpt lat="43.03044" lon="0.61759">
        <ele>455</ele>
        <time>2025-10-24T13:44:53Z</time>
      </trkpt>
      <trkpt lat="43.03015" lon="0.61776">
        <ele>454</ele>
        <time>2025-10-24T13:45:35Z</time>
      </trkpt>
      <trkpt lat="43.02987" lon="0.61789">
        <ele>453</ele>
        <time>2025-10-24T13:46:14Z</time>
      </trkpt>
      <trkpt lat="43.02956" lon="0.61789">
        <ele>451</ele>
        <time>2025-10-24T13:46:56Z</time>
      </trkpt>
      <trkpt lat="43.02932" lon="0.61765">
        <ele>446</ele>
        <time>2025-10-24T13:47:35Z</time>
      </trkpt>
      <trkpt lat="43.02892" lon="0.61639">
        <ele>442</ele>
        <time>2025-10-24T13:49:49Z</time>
      </trkpt>
      <trkpt lat="43.02862" lon="0.61566">
        <ele>443</ele>
        <time>2025-10-24T13:51:11Z</time>
      </trkpt>
      <trkpt lat="43.02841" lon="0.61495">
        <ele>441</ele>
        <time>2025-10-24T13:52:26Z</time>
      </trkpt>
      <trkpt lat="43.02832" lon="0.61439">
        <ele>441</ele>
        <time>2025-10-24T13:53:22Z</time>
      </trkpt>
      <trkpt lat="43.0284" lon="0.61362">
        <ele>441</ele>
        <time>2025-10-24T13:54:37Z</time>
      </trkpt>
      <trkpt lat="43.02862" lon="0.61216">
        <ele>443</ele>
        <time>2025-10-24T13:57:03Z</time>
      </trkpt>
      <trkpt lat="43.02854" lon="0.61164">
        <ele>442</ele>
        <time>2025-10-24T13:57:55Z</time>
      </trkpt>
      <trkpt lat="43.02838" lon="0.61121">
        <ele>443</ele>
        <time>2025-10-24T13:58:42Z</time>
      </trkpt>
      <trkpt lat="43.02829" lon="0.61083">
        <ele>443</ele>
        <time>2025-10-24T13:59:21Z</time>
      </trkpt>
      <trkpt lat="43.02772" lon="0.60928">
        <ele>441</ele>
        <time>2025-10-24T14:02:10Z</time>
      </trkpt>
      <trkpt lat="43.02747" lon="0.60898">
        <ele>441</ele>
        <time>2025-10-24T14:02:54Z</time>
      </trkpt>
      <trkpt lat="43.02724" lon="0.60879">
        <ele>441</ele>
        <time>2025-10-24T14:03:30Z</time>
      </trkpt>
      <trkpt lat="43.02601" lon="0.60701">
        <ele>442</ele>
        <time>2025-10-24T14:07:29Z</time>
      </trkpt>
      <trkpt lat="43.02523" lon="0.60568">
        <ele>445</ele>
        <time>2025-10-24T14:10:16Z</time>
      </trkpt>
      <trkpt lat="43.02492" lon="0.60497">
        <ele>445</ele>
        <time>2025-10-24T14:11:36Z</time>
      </trkpt>
      <trkpt lat="43.02463" lon="0.60476">
        <ele>446</ele>
        <time>2025-10-24T14:12:20Z</time>
      </trkpt>
      <trkpt lat="43.02432" lon="0.60478">
        <ele>447</ele>
        <time>2025-10-24T14:13:01Z</time>
      </trkpt>
      <trkpt lat="43.02419" lon="0.60501">
        <ele>447</ele>
        <time>2025-10-24T14:13:30Z</time>
      </trkpt>
      <trkpt lat="43.02407" lon="0.60471">
        <ele>447</ele>
        <time>2025-10-24T14:14:03Z</time>
      </trkpt>
      <trkpt lat="43.02385" lon="0.60364">
        <ele>447</ele>
        <time>2025-10-24T14:15:52Z</time>
      </trkpt>
      <trkpt lat="43.02382" lon="0.6031">
        <ele>446</ele>
        <time>2025-10-24T14:16:44Z</time>
      </trkpt>
      <trkpt lat="43.02423" lon="0.60234">
        <ele>445</ele>
        <time>2025-10-24T14:18:17Z</time>
      </trkpt>
      <trkpt lat="43.02448" lon="0.60153">
        <ele>442</ele>
        <time>2025-10-24T14:19:42Z</time>
      </trkpt>
      <trkpt lat="43.02495" lon="0.60036">
        <ele>443</ele>
        <time>2025-10-24T14:21:53Z</time>
      </trkpt>
      <trkpt lat="43.02529" lon="0.59928">
        <ele>442</ele>
        <time>2025-10-24T14:23:47Z</time>
      </trkpt>
      <trkpt lat="43.02531" lon="0.5987">
        <ele>442</ele>
        <time>2025-10-24T14:24:44Z</time>
      </trkpt>
      <trkpt lat="43.0254" lon="0.5981">
        <ele>443</ele>
        <time>2025-10-24T14:25:44Z</time>
      </trkpt>
      <trkpt lat="43.02548" lon="0.59772">
        <ele>444</ele>
        <time>2025-10-24T14:26:22Z</time>
      </trkpt>
      <trkpt lat="43.02562" lon="0.59729">
        <ele>446</ele>
        <time>2025-10-24T14:27:08Z</time>
      </trkpt>
      <trkpt lat="43.02578" lon="0.59622">
        <ele>453</ele>
        <time>2025-10-24T14:28:55Z</time>
      </trkpt>
      <trkpt lat="43.02625" lon="0.59484">
        <ele>458</ele>
        <time>2025-10-24T14:31:23Z</time>
      </trkpt>
      <trkpt lat="43.0268" lon="0.59276">
        <ele>460</ele>
        <time>2025-10-24T14:34:59Z</time>
      </trkpt>
      <trkpt lat="43.02711" lon="0.59173">
        <ele>461</ele>
        <time>2025-10-24T14:36:48Z</time>
      </trkpt>
      <trkpt lat="43.0276" lon="0.59141">
        <ele>461</ele>
        <time>2025-10-24T14:38:00Z</time>
      </trkpt>
      <trkpt lat="43.02774" lon="0.59107">
        <ele>460</ele>
        <time>2025-10-24T14:38:38Z</time>
      </trkpt>
      <trkpt lat="43.02783" lon="0.59064">
        <ele>459</ele>
        <time>2025-10-24T14:39:22Z</time>
      </trkpt>
      <trkpt lat="43.02808" lon="0.58986">
        <ele>459</ele>
        <time>2025-10-24T14:40:45Z</time>
      </trkpt>
      <trkpt lat="43.02823" lon="0.58952">
        <ele>461</ele>
        <time>2025-10-24T14:41:24Z</time>
      </trkpt>
      <trkpt lat="43.02862" lon="0.58888">
        <ele>463</ele>
        <time>2025-10-24T14:42:45Z</time>
      </trkpt>
      <trkpt lat="43.02862" lon="0.58851">
        <ele>463</ele>
        <time>2025-10-24T14:43:21Z</time>
      </trkpt>
      <trkpt lat="43.02874" lon="0.58813">
        <ele>463</ele>
        <time>2025-10-24T14:44:01Z</time>
      </trkpt>
      <trkpt lat="43.02901" lon="0.58665">
        <ele>457</ele>
        <time>2025-10-24T14:46:30Z</time>
      </trkpt>
      <trkpt lat="43.02907" lon="0.58615">
        <ele>457</ele>
        <time>2025-10-24T14:47:20Z</time>
      </trkpt>
      <trkpt lat="43.02929" lon="0.58514">
        <ele>459</ele>
        <time>2025-10-24T14:49:02Z</time>
      </trkpt>
      <trkpt lat="43.02932" lon="0.58463">
        <ele>458</ele>
        <time>2025-10-24T14:49:52Z</time>
      </trkpt>
      <trkpt lat="43.02931" lon="0.58437">
        <ele>458</ele>
        <time>2025-10-24T14:50:18Z</time>
      </trkpt>
      <trkpt lat="43.02923" lon="0.58366">
        <ele>457</ele>
        <time>2025-10-24T14:51:28Z</time>
      </trkpt>
      <trkpt lat="43.02876" lon="0.58173">
        <ele>457</ele>
        <time>2025-10-24T14:54:46Z</time>
      </trkpt>
      <trkpt lat="43.02871" lon="0.58104">
        <ele>458</ele>
        <time>2025-10-24T14:55:54Z</time>
      </trkpt>
      <trkpt lat="43.02824" lon="0.57916">
        <ele>460</ele>
        <time>2025-10-24T14:59:08Z</time>
      </trkpt>
      <trkpt lat="43.02819" lon="0.57862">
        <ele>462</ele>
        <time>2025-10-24T15:00:01Z</time>
      </trkpt>
      <trkpt lat="43.02826" lon="0.57819">
        <ele>463</ele>
        <time>2025-10-24T15:00:44Z</time>
      </trkpt>
      <trkpt lat="43.02824" lon="0.57776">
        <ele>462</ele>
        <time>2025-10-24T15:01:26Z</time>
      </trkpt>
      <trkpt lat="43.0281" lon="0.57748">
        <ele>461</ele>
        <time>2025-10-24T15:01:59Z</time>
      </trkpt>
      <trkpt lat="43.02783" lon="0.57735">
        <ele>461</ele>
        <time>2025-10-24T15:02:37Z</time>
      </trkpt>
      <trkpt lat="43.0276" lon="0.57692">
        <ele>461</ele>
        <time>2025-10-24T15:03:29Z</time>
      </trkpt>
      <trkpt lat="43.02743" lon="0.57671">
        <ele>461</ele>
        <time>2025-10-24T15:04:00Z</time>
      </trkpt>
      <trkpt lat="43.02743" lon="0.57624">
        <ele>462</ele>
        <time>2025-10-24T15:04:46Z</time>
      </trkpt>
      <trkpt lat="43.02736" lon="0.57592">
        <ele>462</ele>
        <time>2025-10-24T15:05:18Z</time>
      </trkpt>
      <trkpt lat="43.02722" lon="0.57555">
        <ele>463</ele>
        <time>2025-10-24T15:05:59Z</time>
      </trkpt>
      <trkpt lat="43.027" lon="0.5754">
        <ele>464</ele>
        <time>2025-10-24T15:06:32Z</time>
      </trkpt>
      <trkpt lat="43.02715" lon="0.57522">
        <ele>464</ele>
        <time>2025-10-24T15:06:58Z</time>
      </trkpt>
      <trkpt lat="43.02729" lon="0.57427">
        <ele>465</ele>
        <time>2025-10-24T15:08:33Z</time>
      </trkpt>
      <trkpt lat="43.02727" lon="0.57387">
        <ele>469</ele>
        <time>2025-10-24T15:09:12Z</time>
      </trkpt>
      <trkpt lat="43.02722" lon="0.57365">
        <ele>472</ele>
        <time>2025-10-24T15:09:34Z</time>
      </trkpt>
      <trkpt lat="43.02704" lon="0.5737">
        <ele>473</ele>
        <time>2025-10-24T15:09:59Z</time>
      </trkpt>
      <trkpt lat="43.02696" lon="0.57366">
        <ele>474</ele>
        <time>2025-10-24T15:10:10Z</time>
      </trkpt>
      <trkpt lat="43.02695" lon="0.5735">
        <ele>477</ele>
        <time>2025-10-24T15:10:26Z</time>
      </trkpt>
      <trkpt lat="43.02681" lon="0.57339">
        <ele>480</ele>
        <time>2025-10-24T15:10:47Z</time>
      </trkpt>
      <trkpt lat="43.02708" lon="0.57306">
        <ele>485</ele>
        <time>2025-10-24T15:11:36Z</time>
      </trkpt>
      <trkpt lat="43.0268" lon="0.57302">
        <ele>489</ele>
        <time>2025-10-24T15:12:13Z</time>
      </trkpt>
      <trkpt lat="43.02688" lon="0.57268">
        <ele>497</ele>
        <time>2025-10-24T15:12:48Z</time>
      </trkpt>
      <trkpt lat="43.02691" lon="0.57227">
        <ele>503</ele>
        <time>2025-10-24T15:13:28Z</time>
      </trkpt>
      <trkpt lat="43.0271" lon="0.57171">
        <ele>507</ele>
        <time>2025-10-24T15:14:29Z</time>
      </trkpt>
      <trkpt lat="43.02695" lon="0.57145">
        <ele>509</ele>
        <time>2025-10-24T15:15:01Z</time>
      </trkpt>
      <trkpt lat="43.02705" lon="0.57115">
        <ele>510</ele>
        <time>2025-10-24T15:15:33Z</time>
      </trkpt>
      <trkpt lat="43.02705" lon="0.57085">
        <ele>511</ele>
        <time>2025-10-24T15:16:02Z</time>
      </trkpt>
      <trkpt lat="43.02681" lon="0.57066">
        <ele>511</ele>
        <time>2025-10-24T15:16:39Z</time>
      </trkpt>
    </trkseg>
  </trk>
</gpx>